createdAt,value
2022-09-10T00:04:35.991Z,23.77
2022-09-10T00:09:35.702Z,23.73
2022-09-10T00:14:34.015Z,24.03
2022-09-10T00:19:32.662Z,23.63
2022-09-10T00:24:31.352Z,23.91
2022-09-10T00:29:28.856Z,23.81
2022-09-10T00:34:28.046Z,23.79
2022-09-10T00:39:27.020Z,23.75
2022-09-10T00:44:40.816Z,24.00
2022-09-10T00:49:43.442Z,23.92
2022-09-10T00:54:42.657Z,23.80
2022-09-10T00:59:45.507Z,23.75
2022-09-10T01:04:44.162Z,23.78
2022-09-10T01:09:42.801Z,23.55
2022-09-10T01:15:06.512Z,23.72
2022-09-10T01:20:33.669Z,23.84
2022-09-10T01:25:46.692Z,23.91
2022-09-10T01:30:51.879Z,23.73
2022-09-10T01:35:57.066Z,23.69
2022-09-10T01:40:56.657Z,23.51
2022-09-10T01:46:20.130Z,23.57
2022-09-10T01:51:40.278Z,23.55
2022-09-10T01:56:51.375Z,23.58
2022-09-10T02:02:06.466Z,23.04
2022-09-10T02:07:07.128Z,23.07
2022-09-10T02:12:05.298Z,23.33
2022-09-10T02:17:36.061Z,22.76
2022-09-10T02:22:38.646Z,23.03
2022-09-10T02:27:38.473Z,23.00
2022-09-10T02:32:37.364Z,22.62
2022-09-10T02:37:36.472Z,22.97
2022-09-10T02:42:35.651Z,22.68
2022-09-10T02:47:34.165Z,22.99
2022-09-10T02:52:34.092Z,22.94
2022-09-10T02:57:36.860Z,22.81
2022-09-10T03:02:36.987Z,22.88
2022-09-10T03:07:37.747Z,22.79
2022-09-10T03:12:39.322Z,22.83
2022-09-10T03:17:38.253Z,22.81
2022-09-10T03:22:35.942Z,22.82
2022-09-10T03:27:33.979Z,22.88
2022-09-10T03:32:32.764Z,22.92
2022-09-10T03:37:31.565Z,22.96
2022-09-10T03:42:29.108Z,22.87
2022-09-10T03:47:27.721Z,22.72
2022-09-10T03:52:26.714Z,23.03
2022-09-10T03:57:25.537Z,22.97
2022-09-10T04:02:24.779Z,22.95
2022-09-10T04:07:23.105Z,23.01
2022-09-10T04:12:28.008Z,23.04
2022-09-10T04:17:28.847Z,23.01
2022-09-10T04:22:28.435Z,23.00
2022-09-10T04:27:35.895Z,23.16
2022-09-10T04:32:37.067Z,22.92
2022-09-10T04:37:39.631Z,22.59
2022-09-10T04:42:38.898Z,22.46
2022-09-10T04:47:40.387Z,22.29
2022-09-10T04:52:39.820Z,22.86
2022-09-10T04:57:40.060Z,22.70
2022-09-10T05:02:39.672Z,22.59
2022-09-10T05:07:40.983Z,23.00
2022-09-10T05:12:39.769Z,22.95
2022-09-10T05:17:38.780Z,22.69
2022-09-10T05:22:40.596Z,22.92
2022-09-10T05:27:44.568Z,22.92
2022-09-10T05:32:47.416Z,23.10
2022-09-10T05:37:46.421Z,22.88
2022-09-10T05:42:45.182Z,23.28
2022-09-10T05:47:44.263Z,23.58
2022-09-10T05:52:47.053Z,23.86
2022-09-10T05:57:45.828Z,24.07
2022-09-10T06:02:48.163Z,24.36
2022-09-10T06:08:09.207Z,24.45
2022-09-10T06:13:13.272Z,24.82
2022-09-10T06:18:11.958Z,24.82
2022-09-10T06:23:10.281Z,24.79
2022-09-10T06:28:09.793Z,24.82
2022-09-10T06:33:09.221Z,24.80
2022-09-10T06:38:07.394Z,25.03
2022-09-10T06:43:06.327Z,25.13
2022-09-10T06:48:47.848Z,25.12
2022-09-10T06:53:50.918Z,25.30
2022-09-10T06:58:53.167Z,25.24
2022-09-10T07:03:57.749Z,25.39
2022-09-10T07:09:00.655Z,25.45
2022-09-10T07:14:04.232Z,25.49
2022-09-10T07:19:06.459Z,25.54
2022-09-10T07:24:14.914Z,25.62
2022-09-10T07:29:31.458Z,25.62
2022-09-10T07:34:31.552Z,25.97
2022-09-10T07:39:32.154Z,25.94
2022-09-10T07:44:30.978Z,26.17
2022-09-10T07:49:34.142Z,26.38
2022-09-10T07:54:34.512Z,26.73
2022-09-10T07:59:33.454Z,26.86
2022-09-10T08:04:37.734Z,27.02
2022-09-10T08:09:40.313Z,27.26
2022-09-10T08:14:42.507Z,27.34
2022-09-10T08:19:41.692Z,27.52
2022-09-10T08:24:41.755Z,27.93
2022-09-10T08:29:40.179Z,28.13
2022-09-10T08:34:41.126Z,28.32
2022-09-10T08:39:41.793Z,28.62
2022-09-10T08:44:50.693Z,28.76
2022-09-10T08:49:54.467Z,28.92
2022-09-10T08:54:58.857Z,29.01
2022-09-10T08:59:58.566Z,28.91
2022-09-10T09:05:05.553Z,28.89
2022-09-10T09:10:18.298Z,29.17
2022-09-10T09:15:38.920Z,29.26
2022-09-10T09:20:49.029Z,29.40
2022-09-10T09:25:51.607Z,29.62
2022-09-10T09:30:51.211Z,30.20
2022-09-10T09:36:04.516Z,30.48
2022-09-10T09:41:18.982Z,30.11
2022-09-10T09:46:19.416Z,30.75
2022-09-10T09:51:24.320Z,31.20
2022-09-10T09:56:31.714Z,31.12
2022-09-10T10:01:31.131Z,31.08
2022-09-10T10:06:32.826Z,31.38
2022-09-10T10:11:51.073Z,31.28
2022-09-10T10:16:52.855Z,31.33
2022-09-10T10:21:54.605Z,31.46
2022-09-10T10:26:52.511Z,31.78
2022-09-10T10:31:51.245Z,31.81
2022-09-10T10:37:09.166Z,32.37
2022-09-10T10:42:14.134Z,32.31
2022-09-10T10:47:21.670Z,32.34
2022-09-10T10:52:26.939Z,32.17
2022-09-10T10:57:52.063Z,32.62
2022-09-10T11:02:57.703Z,32.65
2022-09-10T11:07:57.084Z,32.53
2022-09-10T11:13:06.331Z,32.44
2022-09-10T11:18:17.463Z,32.60
2022-09-10T11:23:36.481Z,32.83
2022-09-10T11:28:41.500Z,32.50
2022-09-10T11:33:58.465Z,32.43
2022-09-10T11:39:09.405Z,32.53
2022-09-10T11:44:19.228Z,32.47
2022-09-10T11:49:34.476Z,32.40
2022-09-10T11:54:35.577Z,32.26
2022-09-10T12:00:16.144Z,32.47
2022-09-10T12:05:56.401Z,32.39
2022-09-10T12:11:10.198Z,32.33
2022-09-10T12:16:39.524Z,32.06
2022-09-10T12:21:48.349Z,31.72
2022-09-10T12:26:46.441Z,31.72
2022-09-10T12:32:09.633Z,31.89
2022-09-10T12:37:23.079Z,31.68
2022-09-10T12:42:28.930Z,31.74
2022-09-10T12:47:50.689Z,31.66
2022-09-10T12:52:55.736Z,31.73
2022-09-10T12:58:13.426Z,31.77
2022-09-10T13:03:17.987Z,31.79
2022-09-10T13:08:16.602Z,32.47
2022-09-10T13:13:29.850Z,32.99
2022-09-10T13:18:32.740Z,33.32
2022-09-10T13:23:45.260Z,33.38
2022-09-10T13:28:43.499Z,33.44
2022-09-10T13:33:44.320Z,33.64
2022-09-10T13:38:45.723Z,33.85
2022-09-10T13:44:13.111Z,33.57
2022-09-10T13:49:26.575Z,33.18
2022-09-10T13:54:36.278Z,32.95
2022-09-10T13:59:35.815Z,33.31
2022-09-10T14:04:36.073Z,33.07
2022-09-10T14:09:35.017Z,32.90
2022-09-10T14:14:37.561Z,33.62
2022-09-10T14:19:46.509Z,33.28
2022-09-10T14:24:46.529Z,33.12
2022-09-10T14:29:47.083Z,32.37
2022-09-10T14:34:47.502Z,32.13
2022-09-10T14:39:46.068Z,32.00
2022-09-10T14:44:48.958Z,31.92
2022-09-10T14:49:47.666Z,31.73
2022-09-10T14:54:46.294Z,31.55
2022-09-10T14:59:46.623Z,31.41
2022-09-10T15:04:45.465Z,31.38
2022-09-10T15:09:44.681Z,31.30
2022-09-10T15:14:43.343Z,31.34
2022-09-10T15:19:42.338Z,31.33
2022-09-10T15:25:05.689Z,31.21
2022-09-10T15:30:01.205Z,31.17
2022-09-10T15:34:59.222Z,30.84
2022-09-10T15:39:58.136Z,30.86
2022-09-10T15:44:56.819Z,30.58
2022-09-10T15:49:55.795Z,30.65
2022-09-10T15:54:54.882Z,30.54
2022-09-10T15:59:54.784Z,30.46
2022-09-10T16:04:54.233Z,30.33
2022-09-10T16:09:52.038Z,30.30
2022-09-10T16:14:54.410Z,30.29
2022-09-10T16:19:55.022Z,29.76
2022-09-10T16:24:52.855Z,29.18
2022-09-10T16:29:50.792Z,28.90
2022-09-10T16:34:49.091Z,28.47
2022-09-10T16:39:47.990Z,28.40
2022-09-10T16:44:46.751Z,28.25
2022-09-10T16:49:45.935Z,28.09
2022-09-10T16:54:46.458Z,27.87
2022-09-10T16:59:47.026Z,27.73
2022-09-10T17:04:48.889Z,27.48
2022-09-10T17:09:47.116Z,27.57
2022-09-10T17:14:48.419Z,27.55
2022-09-10T17:19:46.830Z,27.58
2022-09-10T17:24:49.440Z,27.35
2022-09-10T17:29:49.913Z,27.42
2022-09-10T17:34:51.664Z,27.27
2022-09-10T17:39:52.315Z,26.37
2022-09-10T17:44:50.362Z,26.07
2022-09-10T17:49:53.103Z,26.05
2022-09-10T17:54:54.994Z,26.15
2022-09-10T17:59:55.642Z,23.55
2022-09-10T18:05:00.976Z,22.39
2022-09-10T18:09:58.596Z,22.34
2022-09-10T18:14:57.562Z,22.54
2022-09-10T18:19:56.100Z,22.11
2022-09-10T18:24:54.661Z,22.75
2022-09-10T18:29:53.799Z,22.37
2022-09-10T18:34:51.464Z,22.60
2022-09-10T18:39:50.869Z,22.63
2022-09-10T18:44:49.260Z,22.30
2022-09-10T18:49:48.009Z,22.34
2022-09-10T18:54:46.803Z,22.29
2022-09-10T18:59:46.323Z,22.21
2022-09-10T19:05:10.353Z,22.25
2022-09-10T19:10:09.114Z,22.70
2022-09-10T19:15:11.642Z,22.48
2022-09-10T19:20:11.550Z,22.75
2022-09-10T19:25:09.874Z,23.09
2022-09-10T19:30:10.026Z,23.09
2022-09-10T19:35:11.558Z,23.02
2022-09-10T19:40:15.546Z,23.12
2022-09-10T19:45:16.564Z,23.07
2022-09-10T19:50:16.874Z,22.82
2022-09-10T19:55:18.261Z,22.82
2022-09-10T20:00:43.060Z,22.94
2022-09-10T20:05:39.696Z,22.92
2022-09-10T20:10:38.461Z,23.01
2022-09-10T20:15:42.351Z,22.78
2022-09-10T20:20:55.669Z,22.85
2022-09-10T20:25:55.188Z,22.63
2022-09-10T20:30:55.792Z,22.83
2022-09-10T20:35:58.355Z,22.74
2022-09-10T20:40:56.819Z,22.91
2022-09-10T20:46:02.978Z,22.69
2022-09-10T20:51:01.572Z,22.74
2022-09-10T20:56:05.832Z,22.66
2022-09-10T21:01:19.312Z,22.63
2022-09-10T21:06:19.748Z,22.64
2022-09-10T21:11:20.225Z,22.79
2022-09-10T21:16:22.369Z,22.77
2022-09-10T21:21:22.899Z,22.37
2022-09-10T21:26:26.223Z,22.68
2022-09-10T21:31:30.401Z,22.48
2022-09-10T21:36:29.260Z,22.39
2022-09-10T21:41:36.792Z,22.48
2022-09-10T21:46:36.620Z,22.31
2022-09-10T21:51:38.905Z,22.20
2022-09-10T21:56:43.032Z,22.29
2022-09-10T22:01:44.829Z,22.14
2022-09-10T22:06:44.569Z,22.15
2022-09-10T22:11:46.999Z,22.26
2022-09-10T22:16:46.149Z,22.41
2022-09-10T22:21:47.533Z,22.27
2022-09-10T22:26:47.458Z,22.40
2022-09-10T22:31:47.440Z,22.46
2022-09-10T22:36:46.475Z,22.50
2022-09-10T22:41:48.849Z,22.45
2022-09-10T22:46:47.520Z,22.63
2022-09-10T22:51:46.717Z,22.49
2022-09-10T22:56:45.875Z,22.57
2022-09-10T23:01:47.682Z,22.55
2022-09-10T23:06:50.240Z,22.67
2022-09-10T23:11:49.712Z,22.50
2022-09-10T23:16:49.726Z,22.39
2022-09-10T23:21:51.255Z,22.46
2022-09-10T23:26:53.731Z,22.54
2022-09-10T23:31:55.453Z,22.66
2022-09-10T23:36:58.534Z,22.54
2022-09-10T23:41:58.483Z,22.51
2022-09-10T23:46:57.632Z,22.59
2022-09-10T23:51:56.541Z,22.68
2022-09-10T23:56:54.452Z,22.40
